Terminal Aerodrome Forecast
Issued by NWS

Home | Current Version | Previous Version | Text Only | Print | Product List | Glossary On
Versions: 1 2 3 4 5 6 7 8 9 10 11 12 13 14 15 16 17 18 19
000
FTUS43 KAPX 311100
TAFMBL
TAF
KMBL 311120Z 3112/0112 00000KT P6SM SKC
     FM311500 26005KT P6SM FEW060 SCT200
     FM010000 VRB04KT P6SM BKN070
     FM010500 00000KT 2SM BR SCT070
      AMD LTD TO CLD VIS AND WIND=

USA.gov is the U.S. government's official web portal to all federal, state and local government web resources and services.